Observation data for Seymour on 01/18/2019      Previous  Date  Next       Current Mesonet Observations  Soil Data  Daily Summary Page  Observations in Plain Language
KSE1 180600Z 13006KT 06/04 A3003 RMK A01 T00640043  RH  088%=      5-min Rain = 0
KSE1 180605Z 13007KT 06/04 A3003 RMK A01 T00640043  RH  089%=      5-min Rain = 0
KSE1 180610Z 14007KT 07/05 A3002 RMK A01 T00650045  RH  089%=      5-min Rain = 0
KSE1 180615Z 15006KT 07/04 A3002 RMK A01 T00650044  RH  088%=      5-min Rain = 0
KSE1 180620Z 15007KT 07/05 A3002 RMK A01 T00690047  RH  088%=      5-min Rain = 0
KSE1 180625Z 15006KT 07/05 A3002 RMK A01 T00720047  RH  086%=      5-min Rain = 0
KSE1 180630Z 15008KT 08/05 A3002 RMK A01 T00750048  RH  085%=      5-min Rain = 0
KSE1 180635Z 15009KT 08/05 A3002 RMK A01 T00770048  RH  084%=      5-min Rain = 0
KSE1 180640Z 15010KT 08/05 A3002 RMK A01 T00770048  RH  084%=      5-min Rain = 0
KSE1 180645Z 15010KT 08/05 A3002 RMK A01 T00750048  RH  084%=      5-min Rain = 0
KSE1 180650Z 15009KT 08/05 A3001 RMK A01 T00750047  RH  085%=      5-min Rain = 0
KSE1 180655Z 15009KT 08/05 A3001 RMK A01 T00750048  RH  084%=      5-min Rain = 0
KSE1 180700Z 15010KT 08/05 A3001 RMK A01 T00760048  RH  084%=      5-min Rain = 0
KSE1 180705Z 15010KT 08/05 A3001 RMK A01 T00760048  RH  084%=      5-min Rain = 0
KSE1 180710Z 15009KT 08/05 A30 RMK A01 T00760048  RH  084%=      5-min Rain = 0
KSE1 180715Z 15009KT 08/05 A30 RMK A01 T00750048  RH  084%=      5-min Rain = 0
KSE1 180720Z 15008KT 07/05 A2999 RMK A01 T00740047  RH  085%=      5-min Rain = 0
KSE1 180725Z 16009KT 07/05 A2999 RMK A01 T00720046  RH  086%=      5-min Rain = 0
KSE1 180730Z 16009KT 07/05 A2999 RMK A01 T00710046  RH  086%=      5-min Rain = 0
KSE1 180735Z 16010KT 07/05 A2999 RMK A01 T00690046  RH  087%=      5-min Rain = 0
KSE1 180740Z 16010KT 07/05 A2999 RMK A01 T00690046  RH  087%=      5-min Rain = 0
KSE1 180745Z 16011KT 07/05 A2999 RMK A01 T00690046  RH  087%=      5-min Rain = 0
KSE1 180750Z 17011KT 07/05 A2999 RMK A01 T00690046  RH  087%=      5-min Rain = 0
KSE1 180755Z 17011KT 07/05 A2999 RMK A01 T00700047  RH  087%=      5-min Rain = 0
KSE1 180800Z 17011KT 07/05 A2999 RMK A01 T00700047  RH  087%=      5-min Rain = 0
KSE1 180805Z 17010KT 07/05 A2999 RMK A01 T00700047  RH  087%=      5-min Rain = 0
KSE1 180810Z 17010KT 07/05 A2998 RMK A01 T00690047  RH  088%=      5-min Rain = 0
KSE1 180815Z 16010KT 07/05 A2998 RMK A01 T00690047  RH  088%=      5-min Rain = 0
KSE1 180820Z 16011KT 07/05 A2998 RMK A01 T00680047  RH  088%=      5-min Rain = 0
KSE1 180825Z 16012KT 07/05 A2997 RMK A01 T00680047  RH  088%=      5-min Rain = 0
KSE1 180830Z 16011KT 07/05 A2997 RMK A01 T00690047  RH  088%=      5-min Rain = 0
KSE1 180835Z 16010KT 07/05 A2997 RMK A01 T00680047  RH  088%=      5-min Rain = 0
KSE1 180840Z 17009KT 07/05 A2997 RMK A01 T00680047  RH  088%=      5-min Rain = 0
KSE1 180845Z 17009KT 07/05 A2997 RMK A01 T00680047  RH  088%=      5-min Rain = 0
KSE1 180850Z 16010KT 07/05 A2997 RMK A01 T00680047  RH  089%=      5-min Rain = 0
KSE1 180855Z 16010KT 07/05 A2997 RMK A01 T00670047  RH  089%=      5-min Rain = 0
KSE1 180900Z 16009KT 07/05 A2997 RMK A01 T00650046  RH  089%=      5-min Rain = 0
KSE1 180905Z 16009KT 06/05 A2997 RMK A01 T00640046  RH  090%=      5-min Rain = 0
KSE1 180910Z 16009KT 06/05 A2996 RMK A01 T00640046  RH  090%=      5-min Rain = 0
KSE1 180915Z 16010KT 06/05 A2996 RMK A01 T00640046  RH  090%=      5-min Rain = 0
KSE1 180920Z 16010KT 07/05 A2996 RMK A01 T00650047  RH  090%=      5-min Rain = 0
KSE1 180925Z 16010KT 06/05 A2996 RMK A01 T00640046  RH  090%=      5-min Rain = 0
KSE1 180930Z 16009KT 06/05 A2996 RMK A01 T00630046  RH  090%=      5-min Rain = 0
KSE1 180935Z 16009KT 06/05 A2995 RMK A01 T00640047  RH  091%=      5-min Rain = 0
KSE1 180940Z 16008KT 06/05 A2995 RMK A01 T00640047  RH  091%=      5-min Rain = 0
KSE1 180945Z 16007KT 06/05 A2995 RMK A01 T00620045  RH  091%=      5-min Rain = 0
KSE1 180950Z 15007KT 06/04 A2995 RMK A01 T00610044  RH  091%=      5-min Rain = 0
KSE1 180955Z 15008KT 06/05 A2995 RMK A01 T00600045  RH  092%=      5-min Rain = 0
KSE1 181000Z 15008KT 06/05 A2995 RMK A01 T00630047  RH  092%=      5-min Rain = 0
KSE1 181005Z 15009KT 06/05 A2995 RMK A01 T00640047  RH  091%=      5-min Rain = 0
KSE1 181010Z 15009KT 07/05 A2994 RMK A01 T00650048  RH  091%=      5-min Rain = 0
KSE1 181015Z 15009KT 06/05 A2994 RMK A01 T00640047  RH  091%=      5-min Rain = 0
KSE1 181020Z 15009KT 06/05 A2994 RMK A01 T00640047  RH  091%=      5-min Rain = 0
KSE1 181025Z 15009KT 06/05 A2993 RMK A01 T00630046  RH  091%=      5-min Rain = 0
KSE1 181030Z 15009KT 06/05 A2993 RMK A01 T00620046  RH  092%=      5-min Rain = 0
KSE1 181035Z 15010KT 06/05 A2992 RMK A01 T00630047  RH  092%=      5-min Rain = 0
KSE1 181040Z 15010KT 06/05 A2992 RMK A01 T00630047  RH  092%=      5-min Rain = 0
KSE1 181045Z 15010KT 06/05 A2991 RMK A01 T00630047  RH  092%=      5-min Rain = 0
KSE1 181050Z 15010KT 06/05 A2991 RMK A01 T00640048  RH  092%=      5-min Rain = 0
KSE1 181055Z 15011KT 07/05 A299 RMK A01 T00650048  RH  091%=      5-min Rain = 0
KSE1 181100Z 15010KT 07/05 A2989 RMK A01 T00650048  RH  091%=      5-min Rain = 0
KSE1 181105Z 15012KT 07/05 A2989 RMK A01 T00660049  RH  091%=      5-min Rain = 0
KSE1 181110Z 15012KT 07/05 A2988 RMK A01 T00680051  RH  090%=      5-min Rain = 0
KSE1 181115Z 15011KT 07/05 A2988 RMK A01 T00700051  RH  090%=      5-min Rain = 0
KSE1 181120Z 15012KT 07/05 A2988 RMK A01 T00730052  RH  089%=      5-min Rain = 0
KSE1 181125Z 15012G19KT 07/05 A2988 RMK A01 T00740052  RH  088%=      5-min Rain = 0
KSE1 181130Z 16013G18KT 08/05 A2987 RMK A01 T00750053  RH  088%=      5-min Rain = 0
KSE1 181135Z 16014KT 07/05 A2987 RMK A01 T00740052  RH  088%=      5-min Rain = 0
KSE1 181140Z 16014G19KT 07/05 A2987 RMK A01 T00730052  RH  088%=      5-min Rain = 0
KSE1 181145Z 16013KT 07/05 A2987 RMK A01 T00720052  RH  089%=      5-min Rain = 0
KSE1 181150Z 15013KT 07/05 A2986 RMK A01 T00720052  RH  089%=      5-min Rain = 0
KSE1 181155Z 15013KT 07/05 A2986 RMK A01 T00720052  RH  089%=      5-min Rain = 0
KSE1 181200Z 16013KT 07/05 A2986 RMK A01 T00710051  RH  090%=      5-min Rain = 0
KSE1 181205Z 16013KT 07/05 A2986 RMK A01 T00700051  RH  090%=      5-min Rain = 0
KSE1 181210Z 16012KT 07/05 A2986 RMK A01 T00690051  RH  090%=      5-min Rain = 0
KSE1 181215Z 16012KT 07/05 A2986 RMK A01 T00680051  RH  090%=      5-min Rain = 0
KSE1 181220Z 16011KT 07/05 A2986 RMK A01 T00670050  RH  091%=      5-min Rain = 0
KSE1 181225Z 16010KT 07/05 A2986 RMK A01 T00670050  RH  091%=      5-min Rain = 0
KSE1 181230Z 16011KT 07/05 A2986 RMK A01 T00660050  RH  091%=      5-min Rain = 0
KSE1 181235Z 16010KT 07/05 A2986 RMK A01 T00660050  RH  092%=      5-min Rain = 0
KSE1 181240Z 15011KT 07/05 A2986 RMK A01 T00660050  RH  092%=      5-min Rain = 0
KSE1 181245Z 16010KT 07/05 A2986 RMK A01 T00660051  RH  092%=      5-min Rain = 0
KSE1 181250Z 16009KT 07/05 A2985 RMK A01 T00650049  RH  092%=      5-min Rain = 0
KSE1 181255Z 15009KT 06/05 A2985 RMK A01 T00640049  RH  092%=      5-min Rain = 0
KSE1 181300Z 15010KT 06/05 A2984 RMK A01 T00640049  RH  092%=      5-min Rain = 0
KSE1 181305Z 15010KT 06/05 A2984 RMK A01 T00640049  RH  093%=      5-min Rain = 0
KSE1 181310Z 16010KT 06/05 A2984 RMK A01 T00640050  RH  093%=      5-min Rain = 0
KSE1 181315Z 16010KT 06/05 A2984 RMK A01 T00640050  RH  093%=      5-min Rain = 0
KSE1 181320Z 16010KT 06/05 A2984 RMK A01 T00640050  RH  092%=      5-min Rain = 0
KSE1 181325Z 16010KT 06/05 A2984 RMK A01 T00640050  RH  093%=      5-min Rain = 0
KSE1 181330Z 16010KT 06/05 A2984 RMK A01 T00630049  RH  093%=      5-min Rain = 0
KSE1 181335Z 16010KT 06/05 A2984 RMK A01 T00640050  RH  093%=      5-min Rain = 0
KSE1 181340Z 16010KT 06/05 A2984 RMK A01 T00640050  RH  093%=      5-min Rain = 0
KSE1 181345Z 16010KT 07/05 A2983 RMK A01 T00650051  RH  093%=      5-min Rain = 0
KSE1 181350Z 16009KT 07/05 A2983 RMK A01 T00650051  RH  092%=      5-min Rain = 0
KSE1 181355Z 16008KT 07/05 A2983 RMK A01 T00650051  RH  092%=      5-min Rain = 0
KSE1 181400Z 16007KT 07/05 A2983 RMK A01 T00660051  RH  092%=      5-min Rain = 0
KSE1 181405Z 16006KT 07/05 A2983 RMK A01 T00650050  RH  092%=      5-min Rain = 0
KSE1 181410Z 16007KT 07/05 A2983 RMK A01 T00670052  RH  092%=      5-min Rain = 0
KSE1 181415Z 15007KT 07/05 A2982 RMK A01 T00690053  RH  092%=      5-min Rain = 0
KSE1 181420Z 16007KT 07/05 A2982 RMK A01 T00710054  RH  091%=      5-min Rain = 0
KSE1 181425Z 16007KT 07/06 A2982 RMK A01 T00740055  RH  090%=      5-min Rain = 0
KSE1 181430Z 16008KT 08/06 A2982 RMK A01 T00750055  RH  089%=      5-min Rain = 0
KSE1 181435Z 16008KT 08/06 A2982 RMK A01 T00770057  RH  089%=      5-min Rain = 0
KSE1 181440Z 15008KT 08/06 A2982 RMK A01 T00800059  RH  089%=      5-min Rain = 0
KSE1 181445Z 15007KT 08/06 A2981 RMK A01 T00830060  RH  087%=      5-min Rain = 0
KSE1 181450Z 16007KT 09/06 A2981 RMK A01 T00860061  RH  086%=      5-min Rain = 0
KSE1 181455Z 16007KT 09/06 A2982 RMK A01 T00880061  RH  085%=      5-min Rain = 0
KSE1 181500Z 16007KT 09/06 A2981 RMK A01 T00900063  RH  085%=      5-min Rain = 0
KSE1 181505Z 16007KT 09/06 A298 RMK A01 T00920064  RH  085%=      5-min Rain = 0
KSE1 181510Z 17006KT 10/07 A2981 RMK A01 T00960065  RH  084%=      5-min Rain = 0
KSE1 181515Z 18007G12KT 10/07 A2981 RMK A01 T01020067  RH  081%=      5-min Rain = 0
KSE1 181520Z 18008KT 11/07 A2981 RMK A01 T01070065  RH  077%=      5-min Rain = 0
KSE1 181525Z 19008KT 11/07 A2981 RMK A01 T01080066  RH  077%=      5-min Rain = 0
KSE1 181530Z 19009KT 11/07 A2981 RMK A01 T01110068  RH  077%=      5-min Rain = 0
KSE1 181535Z 19009KT 11/07 A2981 RMK A01 T01140069  RH  076%=      5-min Rain = 0
KSE1 181540Z 18011KT 12/07 A298 RMK A01 T01170067  RH  074%=      5-min Rain = 0
KSE1 181545Z 19011KT 12/07 A2981 RMK A01 T01190068  RH  073%=      5-min Rain = 0
KSE1 181550Z 19010G15KT 12/07 A2981 RMK A01 T01200069  RH  073%=      5-min Rain = 0
KSE1 181555Z 19010KT 12/07 A2981 RMK A01 T01210068  RH  072%=      5-min Rain = 0
KSE1 181600Z 20010KT 13/07 A2981 RMK A01 T01270071  RH  071%=      5-min Rain = 0
KSE1 181605Z 20013G18KT 13/07 A2981 RMK A01 T01340072  RH  068%=      5-min Rain = 0
KSE1 181610Z 20011KT 14/07 A2981 RMK A01 T01380072  RH  066%=      5-min Rain = 0
KSE1 181615Z 20010KT 14/07 A2981 RMK A01 T01380073  RH  067%=      5-min Rain = 0
KSE1 181620Z 21011KT 14/07 A2981 RMK A01 T01380072  RH  066%=      5-min Rain = 0
KSE1 181625Z 20013G19KT 14/07 A298 RMK A01 T01360068  RH  065%=      5-min Rain = 0
KSE1 181630Z 20012G17KT 14/07 A298 RMK A01 T01350068  RH  065%=      5-min Rain = 0
KSE1 181635Z 20010KT 14/07 A2981 RMK A01 T01370071  RH  066%=      5-min Rain = 0
KSE1 181640Z 20012KT 14/07 A298 RMK A01 T01380071  RH  065%=      5-min Rain = 0
KSE1 181645Z 20010G16KT 14/07 A298 RMK A01 T01420074  RH  065%=      5-min Rain = 0
KSE1 181650Z 20011G17KT 15/07 A298 RMK A01 T01470074  RH  063%=      5-min Rain = 0
KSE1 181655Z 20013KT 15/07 A2979 RMK A01 T01490071  RH  061%=      5-min Rain = 0
KSE1 181700Z 20012KT 15/07 A2979 RMK A01 T01490070  RH  061%=      5-min Rain = 0
KSE1 181705Z 20013KT 15/07 A2979 RMK A01 T01470068  RH  061%=      5-min Rain = 0
KSE1 181710Z 20012KT 15/07 A2979 RMK A01 T01450067  RH  061%=      5-min Rain = 0
KSE1 181715Z 20012KT 15/07 A2979 RMK A01 T01460069  RH  061%=      5-min Rain = 0
KSE1 181720Z 20011KT 15/07 A2979 RMK A01 T01480071  RH  062%=      5-min Rain = 0
KSE1 181725Z 20011KT 15/07 A2978 RMK A01 T01490070  RH  061%=      5-min Rain = 0
KSE1 181730Z 19010G15KT 15/07 A2977 RMK A01 T01500071  RH  061%=      5-min Rain = 0
KSE1 181735Z 20012KT 15/07 A2977 RMK A01 T01500072  RH  061%=      5-min Rain = 0
KSE1 181740Z 19011KT 15/07 A2976 RMK A01 T01540074  RH  061%=      5-min Rain = 0
KSE1 181745Z 19011G16KT 16/07 A2976 RMK A01 T01570074  RH  060%=      5-min Rain = 0
KSE1 181750Z 19011KT 16/08 A2975 RMK A01 T01580075  RH  059%=      5-min Rain = 0
KSE1 181755Z 19012KT 16/08 A2975 RMK A01 T01580076  RH  060%=      5-min Rain = 0
KSE1 181800Z 18011KT 16/08 A2975 RMK A01 T01620080  RH  060%=      5-min Rain = 0
KSE1 181805Z 19013KT 17/08 A2974 RMK A01 T01680079  RH  057%=      5-min Rain = 0
KSE1 181810Z 19012KT 17/08 A2973 RMK A01 T01720081  RH  057%=      5-min Rain = 0
KSE1 181815Z 19014KT 18/08 A2973 RMK A01 T01760083  RH  056%=      5-min Rain = 0
KSE1 181820Z 19013G18KT 18/09 A2972 RMK A01 T01820085  RH  055%=      5-min Rain = 0
KSE1 181825Z 19013KT 18/08 A2971 RMK A01 T01840084  RH  054%=      5-min Rain = 0
KSE1 181830Z 19014KT 19/09 A2971 RMK A01 T01850085  RH  054%=      5-min Rain = 0
KSE1 181835Z 19014KT 19/09 A297 RMK A01 T01860086  RH  054%=      5-min Rain = 0
KSE1 181840Z 19014KT 19/09 A297 RMK A01 T01900088  RH  053%=      5-min Rain = 0
KSE1 181845Z 19013KT 20/09 A2969 RMK A01 T01950090  RH  052%=      5-min Rain = 0
KSE1 181850Z 20012KT 20/09 A2969 RMK A01 T01970086  RH  050%=      5-min Rain = 0
KSE1 181855Z 20014G19KT 20/08 A2968 RMK A01 T02030082  RH  047%=      5-min Rain = 0
KSE1 181900Z 20015KT 21/08 A2968 RMK A01 T02050081  RH  046%=      5-min Rain = 0
KSE1 181905Z 20014KT 21/08 A2967 RMK A01 T02080082  RH  045%=      5-min Rain = 0
KSE1 181910Z 20016G21KT 21/08 A2966 RMK A01 T02090080  RH  045%=      5-min Rain = 0
KSE1 181915Z 20017G24KT 21/08 A2966 RMK A01 T02110077  RH  043%=      5-min Rain = 0
KSE1 181920Z 21018KT 21/08 A2965 RMK A01 T02120075  RH  042%=      5-min Rain = 0
KSE1 181925Z 21017G22KT 21/08 A2964 RMK A01 T02110075  RH  042%=      5-min Rain = 0
KSE1 181930Z 21014G19KT 22/08 A2964 RMK A01 T02150078  RH  042%=      5-min Rain = 0
KSE1 181935Z 21014G21KT 22/08 A2964 RMK A01 T02200080  RH  042%=      5-min Rain = 0
KSE1 181940Z 21015G21KT 22/08 A2963 RMK A01 T02180077  RH  041%=      5-min Rain = 0
KSE1 181945Z 20014G19KT 22/08 A2962 RMK A01 T02190077  RH  041%=      5-min Rain = 0
KSE1 181950Z 21015KT 22/07 A2961 RMK A01 T02190074  RH  040%=      5-min Rain = 0
KSE1 181955Z 22017G22KT 22/07 A2961 RMK A01 T02210070  RH  039%=      5-min Rain = 0
KSE1 182000Z 22016G21KT 22/07 A2961 RMK A01 T02200067  RH  038%=      5-min Rain = 0
KSE1 182005Z 22016KT 22/07 A2961 RMK A01 T02170065  RH  038%=      5-min Rain = 0
KSE1 182010Z 22015G20KT 22/07 A2961 RMK A01 T02160066  RH  039%=      5-min Rain = 0
KSE1 182015Z 22013G18KT 22/07 A2961 RMK A01 T02170068  RH  039%=      5-min Rain = 0
KSE1 182020Z 23014KT 22/06 A2961 RMK A01 T02190061  RH  037%=      5-min Rain = 0
KSE1 182025Z 23012KT 22/07 A296 RMK A01 T02190065  RH  038%=      5-min Rain = 0
KSE1 182030Z 22014G19KT 22/06 A296 RMK A01 T02210062  RH  037%=      5-min Rain = 0
KSE1 182035Z 22013KT 22/06 A296 RMK A01 T02210062  RH  037%=      5-min Rain = 0
KSE1 182040Z 23010KT 22/07 A2959 RMK A01 T02210066  RH  038%=      5-min Rain = 0
KSE1 182045Z 23011KT 22/06 A2959 RMK A01 T02210063  RH  037%=      5-min Rain = 0
KSE1 182050Z 22010KT 22/07 A2959 RMK A01 T02210067  RH  038%=      5-min Rain = 0
KSE1 182055Z 22009KT 22/07 A2959 RMK A01 T02220070  RH  038%=      5-min Rain = 0
KSE1 182100Z 21009KT 22/07 A2958 RMK A01 T02220072  RH  039%=      5-min Rain = 0
KSE1 182105Z 21009KT 22/08 A2958 RMK A01 T02220075  RH  040%=      5-min Rain = 0
KSE1 182110Z 21010KT 22/07 A2958 RMK A01 T02210073  RH  039%=      5-min Rain = 0
KSE1 182115Z 20009KT 22/07 A2958 RMK A01 T02230073  RH  039%=      5-min Rain = 0
KSE1 182120Z 20009KT 22/07 A2957 RMK A01 T02230072  RH  039%=      5-min Rain = 0
KSE1 182125Z 20007KT 23/07 A2957 RMK A01 T02260074  RH  039%=      5-min Rain = 0
KSE1 182130Z 21007KT 23/07 A2957 RMK A01 T02320074  RH  037%=      5-min Rain = 0
KSE1 182135Z 21008KT 23/07 A2957 RMK A01 T02340074  RH  037%=      5-min Rain = 0
KSE1 182140Z 21008KT 23/07 A2957 RMK A01 T02320071  RH  036%=      5-min Rain = 0
KSE1 182145Z 21009KT 23/07 A2957 RMK A01 T02290069  RH  036%=      5-min Rain = 0
KSE1 182150Z 21008KT 23/07 A2957 RMK A01 T02300070  RH  037%=      5-min Rain = 0
KSE1 182155Z 20010KT 23/07 A2957 RMK A01 T02310070  RH  036%=      5-min Rain = 0
KSE1 182200Z 21011KT 23/07 A2957 RMK A01 T02260068  RH  037%=      5-min Rain = 0
KSE1 182205Z 21008KT 22/07 A2957 RMK A01 T02230074  RH  039%=      5-min Rain = 0
KSE1 182210Z 22008KT 23/08 A2957 RMK A01 T02290077  RH  039%=      5-min Rain = 0
KSE1 182215Z 22009KT 23/07 A2957 RMK A01 T02260074  RH  038%=      5-min Rain = 0
KSE1 182220Z 22011G18KT 22/07 A2957 RMK A01 T02230067  RH  037%=      5-min Rain = 0
KSE1 182225Z 23013G19KT 23/05 A2957 RMK A01 T02250053  RH  033%=      5-min Rain = 0
KSE1 182230Z 23012G17KT 22/06 A2957 RMK A01 T02220055  RH  035%=      5-min Rain = 0
KSE1 182235Z 23012G17KT 22/05 A2957 RMK A01 T02180053  RH  035%=      5-min Rain = 0
KSE1 182240Z 23012KT 22/05 A2958 RMK A01 T02160049  RH  034%=      5-min Rain = 0
KSE1 182245Z 23012KT 21/05 A2958 RMK A01 T02140047  RH  034%=      5-min Rain = 0
KSE1 182250Z 23011KT 21/05 A2957 RMK A01 T02130046  RH  034%=      5-min Rain = 0
KSE1 182255Z 23011KT 21/05 A2957 RMK A01 T02120045  RH  034%=      5-min Rain = 0
KSE1 182300Z 22009KT 21/05 A2957 RMK A01 T02080049  RH  036%=      5-min Rain = 0
KSE1 182305Z 23010KT 21/05 A2957 RMK A01 T02050049  RH  037%=      5-min Rain = 0
KSE1 182310Z 23009KT 20/05 A2957 RMK A01 T02040051  RH  038%=      5-min Rain = 0
KSE1 182315Z 23009KT 20/05 A2958 RMK A01 T02000052  RH  039%=      5-min Rain = 0
KSE1 182320Z 23011KT 20/05 A2958 RMK A01 T02010049  RH  038%=      5-min Rain = 0
KSE1 182325Z 24012KT 20/05 A2958 RMK A01 T02010047  RH  037%=      5-min Rain = 0
KSE1 182330Z 24012KT 20/04 A2958 RMK A01 T02020044  RH  036%=      5-min Rain = 0
KSE1 182335Z 24011KT 20/04 A2958 RMK A01 T02020044  RH  036%=      5-min Rain = 0
KSE1 182340Z 23011G16KT 20/04 A2958 RMK A01 T02010043  RH  036%=      5-min Rain = 0
KSE1 182345Z 23011KT 20/04 A2958 RMK A01 T02000043  RH  036%=      5-min Rain = 0
KSE1 182350Z 24013KT 20/04 A2958 RMK A01 T01990042  RH  036%=      5-min Rain = 0
KSE1 182355Z 24013KT 20/04 A2958 RMK A01 T01980041  RH  036%=      5-min Rain = 0
KSE1 190000Z 24012G17KT 20/04 A2958 RMK A01 T01950041  RH  037%=      5-min Rain = 0
KSE1 190005Z 24015G20KT 20/04 A2958 RMK A01 T01980036  RH  035%=      5-min Rain = 0
KSE1 190010Z 24016G24KT 20/03 A2958 RMK A01 T02020034  RH  034%=      5-min Rain = 0
KSE1 190015Z 24016G21KT 20/03 A2958 RMK A01 T02030032  RH  033%=      5-min Rain = 0
KSE1 190020Z 24015G21KT 20/03 A2958 RMK A01 T02030032  RH  033%=      5-min Rain = 0
KSE1 190025Z 25014KT 20/03 A2958 RMK A01 T02010034  RH  034%=      5-min Rain = 0
KSE1 190030Z 24013G19KT 20/03 A2959 RMK A01 T01990034  RH  034%=      5-min Rain = 0
KSE1 190035Z 25012KT 20/04 A2959 RMK A01 T01980035  RH  035%=      5-min Rain = 0
KSE1 190040Z 25013KT 20/04 A2959 RMK A01 T01970037  RH  035%=      5-min Rain = 0
KSE1 190045Z 24013KT 20/04 A2959 RMK A01 T01980035  RH  035%=      5-min Rain = 0
KSE1 190050Z 24012KT 19/04 A2959 RMK A01 T01940038  RH  036%=      5-min Rain = 0
KSE1 190055Z 23012KT 19/04 A2959 RMK A01 T01890042  RH  039%=      5-min Rain = 0
KSE1 190100Z 24014G21KT 19/04 A2959 RMK A01 T01880040  RH  038%=      5-min Rain = 0
KSE1 190105Z 24015G21KT 19/04 A296 RMK A01 T01920037  RH  037%=      5-min Rain = 0
KSE1 190110Z 24018KT 19/03 A296 RMK A01 T01940034  RH  035%=      5-min Rain = 0
KSE1 190115Z 24016KT 19/04 A296 RMK A01 T01900037  RH  037%=      5-min Rain = 0
KSE1 190120Z 24013KT 19/04 A296 RMK A01 T01870038  RH  038%=      5-min Rain = 0
KSE1 190125Z 24012KT 18/04 A296 RMK A01 T01840039  RH  039%=      5-min Rain = 0
KSE1 190130Z 24011G16KT 18/04 A296 RMK A01 T01840037  RH  038%=      5-min Rain = 0
KSE1 190135Z 26010KT 18/04 A296 RMK A01 T01800038  RH  039%=      5-min Rain = 0
KSE1 190140Z 26008KT 18/04 A2961 RMK A01 T01750038  RH  041%=      5-min Rain = 0
KSE1 190145Z 25009G14KT 17/04 A2961 RMK A01 T01680043  RH  044%=      5-min Rain = 0
KSE1 190150Z 25013KT 18/04 A2961 RMK A01 T01760035  RH  040%=      5-min Rain = 0
KSE1 190155Z 24013KT 18/03 A2962 RMK A01 T01780034  RH  039%=      5-min Rain = 0
KSE1 190200Z 23013KT 18/03 A2962 RMK A01 T01760034  RH  039%=      5-min Rain = 0
KSE1 190205Z 23016G23KT 18/03 A2963 RMK A01 T01760032  RH  039%=      5-min Rain = 0
KSE1 190210Z 23018G24KT 18/03 A2963 RMK A01 T01770031  RH  038%=      5-min Rain = 0
KSE1 190215Z 25017G24KT 17/04 A2964 RMK A01 T01740036  RH  041%=      5-min Rain = 0
KSE1 190220Z 32020G27KT 15/03 A2967 RMK A01 T01460034  RH  048%=      5-min Rain = 0
KSE1 190225Z 33020G28KT 12/03 A2968 RMK A01 T01220033  RH  055%=      5-min Rain = 0
KSE1 190230Z 32024G29KT 12/03 A2968 RMK A01 T01150032  RH  058%=      5-min Rain = 0
KSE1 190235Z 32025G31KT 11/03 A2968 RMK A01 T01070031  RH  060%=      5-min Rain = 0
KSE1 190240Z 32025G33KT 10/03 A2969 RMK A01 T01020030  RH  062%=      5-min Rain = 0
KSE1 190245Z 32025G30KT 10/03 A297 RMK A01 T00990030  RH  063%=      5-min Rain = 0
KSE1 190250Z 32022G27KT 10/03 A297 RMK A01 T00970031  RH  065%=      5-min Rain = 0
KSE1 190255Z 32020G28KT 09/03 A297 RMK A01 T00940031  RH  066%=      5-min Rain = 0
KSE1 190300Z 32021G27KT 09/03 A2971 RMK A01 T00920031  RH  067%=      5-min Rain = 0
KSE1 190305Z 32021G28KT 09/03 A2971 RMK A01 T00900032  RH  068%=      5-min Rain = 0
KSE1 190310Z 31020KT 09/03 A2972 RMK A01 T00880033  RH  070%=      5-min Rain = 0
KSE1 190315Z 31020G25KT 09/03 A2973 RMK A01 T00870033  RH  070%=      5-min Rain = 0
KSE1 190320Z 31021G26KT 09/03 A2974 RMK A01 T00860034  RH  071%=      5-min Rain = 0
KSE1 190325Z 31021G26KT 09/03 A2975 RMK A01 T00850034  RH  072%=      5-min Rain = 0
KSE1 190330Z 31021KT 08/03 A2975 RMK A01 T00840034  RH  072%=      5-min Rain = 0
KSE1 190335Z 32021G27KT 08/04 A2975 RMK A01 T00830035  RH  073%=      5-min Rain = 0
KSE1 190340Z 32023G29KT 08/04 A2975 RMK A01 T00830035  RH  073%=      5-min Rain = 0
KSE1 190345Z 32023G29KT 09/04 A2975 RMK A01 T00850036  RH  073%=      5-min Rain = 0
KSE1 190350Z 32021KT 09/04 A2976 RMK A01 T00850037  RH  073%=      5-min Rain = 0
KSE1 190355Z 32024G29KT 09/04 A2976 RMK A01 T00860038  RH  073%=      5-min Rain = 0
KSE1 190400Z 32021G29KT 09/04 A2976 RMK A01 T00860039  RH  074%=      5-min Rain = 0
KSE1 190405Z 32020G30KT 09/04 A2977 RMK A01 T00860039  RH  074%=      5-min Rain = 0
KSE1 190410Z 33020G27KT 09/04 A2977 RMK A01 T00860039  RH  074%=      5-min Rain = 0
KSE1 190415Z 32023G30KT 09/04 A2978 RMK A01 T00860039  RH  074%=      5-min Rain = 0
KSE1 190420Z 33024G31KT 09/04 A2978 RMK A01 T00850039  RH  074%=      5-min Rain = 0
KSE1 190425Z 33022G27KT 09/04 A2979 RMK A01 T00850039  RH  074%=      5-min Rain = 0
KSE1 190430Z 33024G30KT 08/04 A298 RMK A01 T00840038  RH  074%=      5-min Rain = 0
KSE1 190435Z 32025KT 08/04 A2981 RMK A01 T00830036  RH  074%=      5-min Rain = 0
KSE1 190440Z 32028G35KT 08/03 A2982 RMK A01 T00770032  RH  074%=      5-min Rain = 0
KSE1 190445Z 31028G35KT 07/03 A2982 RMK A01 T00730030  RH  075%=      5-min Rain = 0
KSE1 190450Z 32029G36KT 07/03 A2983 RMK A01 T00700027  RH  075%=      5-min Rain = 0
KSE1 190455Z 32030G36KT 07/03 A2983 RMK A01 T00690025  RH  075%=      5-min Rain = 0
KSE1 190500Z 32027G35KT 07/03 A2984 RMK A01 T00680025  RH  075%=      5-min Rain = 0
KSE1 190505Z 32027G35KT 07/02 A2984 RMK A01 T00670024  RH  075%=      5-min Rain = 0
KSE1 190510Z 33028G34KT 07/02 A2985 RMK A01 T00670023  RH  075%=      5-min Rain = 0
KSE1 190515Z 33027G35KT 07/02 A2985 RMK A01 T00670022  RH  075%=      5-min Rain = 0
KSE1 190520Z 32025G33KT 07/02 A2986 RMK A01 T00650020  RH  074%=      5-min Rain = 0
KSE1 190525Z 32027G33KT 06/02 A2986 RMK A01 T00630017  RH  074%=      5-min Rain = 0
KSE1 190530Z 32031G37KT 06/02 A2987 RMK A01 T00620015  RH  073%=      5-min Rain = 0
KSE1 190535Z 33031G37KT 06/01 A2988 RMK A01 T00610014  RH  073%=      5-min Rain = 0
KSE1 190540Z 33025G32KT 06/02 A2988 RMK A01 T00610015  RH  073%=      5-min Rain = 0
KSE1 190545Z 33025G30KT 06/01 A2989 RMK A01 T00600014  RH  074%=      5-min Rain = 0
KSE1 190550Z 33028G38KT 06/01 A299 RMK A01 T00590014  RH  074%=      5-min Rain = 0
KSE1 190555Z 33030G38KT 06/01 A299 RMK A01 T00570010  RH  073%=      5-min Rain = 0

Page generated in 0.0196 seconds.